Georgiana, Alabama
Current Conditions -  °F | °C
As of 3:56 PM on Saturday 20 Dec 2014 (Local Time) from KPRN Reporting Station
Overcast Overcast  
Wind Chill: 51°   Ceiling: 700
Heat Index: 51°   Visibility: 8mi
Dew Point: 47°   Wind: 7mph
Humidity: 86%   Direction: 20°NNE
Pressure: 30.13"   Gusts: NA
Location:  31.64°N, 86.74°W
Report Text: KPRN 202156Z AUTO 02006KT 8SM OVC007 11/08 A3013 RMK AO2 SLP203 T01060083
Loading
Personal Weather Stations






























Interactive Weather Map New forecast layout! Learn more

10-Day Weather Forecast

Advertisements
Track Severe Weather on mobile